sensor_id;sensor_type;location;lat;lon;timestamp;pressure;altitude;pressure_sealevel;temperature;humidity
29239;BME280;16267;48.194;11.546;2023-07-22T00:02:21;95976.09;;;17.48;81.09
29239;BME280;16267;48.194;11.546;2023-07-22T00:04:49;95980.91;;;17.44;81.17
29239;BME280;16267;48.194;11.546;2023-07-22T00:07:15;95975.50;;;17.44;80.94
29239;BME280;16267;48.194;11.546;2023-07-22T00:09:42;95971.25;;;17.43;80.62
29239;BME280;16267;48.194;11.546;2023-07-22T00:12:09;95974.84;;;17.39;80.60
29239;BME280;16267;48.194;11.546;2023-07-22T00:14:40;95975.31;;;17.38;80.22
29239;BME280;16267;48.194;11.546;2023-07-22T00:17:07;95985.09;;;17.35;80.56
29239;BME280;16267;48.194;11.546;2023-07-22T00:19:33;95982.50;;;17.32;81.12
29239;BME280;16267;48.194;11.546;2023-07-22T00:21:59;95976.03;;;17.29;81.16
29239;BME280;16267;48.194;11.546;2023-07-22T00:24:25;95981.56;;;17.26;81.43
29239;BME280;16267;48.194;11.546;2023-07-22T00:26:51;95982.91;;;17.21;81.54
29239;BME280;16267;48.194;11.546;2023-07-22T00:29:17;95982.72;;;17.15;81.88
29239;BME280;16267;48.194;11.546;2023-07-22T00:31:43;95972.63;;;17.16;81.68
29239;BME280;16267;48.194;11.546;2023-07-22T00:34:09;95973.06;;;17.14;80.93
29239;BME280;16267;48.194;11.546;2023-07-22T00:36:36;95967.31;;;17.12;81.04
29239;BME280;16267;48.194;11.546;2023-07-22T00:39:03;95964.31;;;17.10;81.48
29239;BME280;16267;48.194;11.546;2023-07-22T00:41:29;95960.53;;;17.08;81.53
29239;BME280;16267;48.194;11.546;2023-07-22T00:43:55;95964.44;;;17.07;81.19
29239;BME280;16267;48.194;11.546;2023-07-22T00:46:21;95965.78;;;17.02;81.35
29239;BME280;16267;48.194;11.546;2023-07-22T00:48:47;95954.59;;;17.00;82.17
29239;BME280;16267;48.194;11.546;2023-07-22T00:51:14;95954.75;;;16.97;82.11
29239;BME280;16267;48.194;11.546;2023-07-22T00:53:40;95955.94;;;16.95;82.15
29239;BME280;16267;48.194;11.546;2023-07-22T00:56:06;95953.34;;;16.92;81.79
29239;BME280;16267;48.194;11.546;2023-07-22T00:58:33;95948.06;;;16.88;82.63
29239;BME280;16267;48.194;11.546;2023-07-22T01:00:59;95940.81;;;16.85;82.90
29239;BME280;16267;48.194;11.546;2023-07-22T01:03:25;95933.88;;;16.84;82.93
29239;BME280;16267;48.194;11.546;2023-07-22T01:05:52;95934.75;;;16.81;82.84
29239;BME280;16267;48.194;11.546;2023-07-22T01:08:19;95937.59;;;16.78;82.89
29239;BME280;16267;48.194;11.546;2023-07-22T01:10:44;95928.72;;;16.77;83.26
29239;BME280;16267;48.194;11.546;2023-07-22T01:13:10;95941.53;;;16.77;82.67
29239;BME280;16267;48.194;11.546;2023-07-22T01:15:37;95938.81;;;16.77;82.92
29239;BME280;16267;48.194;11.546;2023-07-22T01:18:03;95939.63;;;16.73;83.38
29239;BME280;16267;48.194;11.546;2023-07-22T01:20:30;95927.72;;;16.71;83.22
29239;BME280;16267;48.194;11.546;2023-07-22T01:22:56;95927.72;;;16.71;82.37
29239;BME280;16267;48.194;11.546;2023-07-22T01:25:23;95935.84;;;16.71;81.99
29239;BME280;16267;48.194;11.546;2023-07-22T01:27:51;95933.59;;;16.69;82.18
29239;BME280;16267;48.194;11.546;2023-07-22T01:30:17;95935.09;;;16.70;81.74
29239;BME280;16267;48.194;11.546;2023-07-22T01:32:45;95934.81;;;16.68;82.27
29239;BME280;16267;48.194;11.546;2023-07-22T01:35:11;95931.47;;;16.64;82.13
29239;BME280;16267;48.194;11.546;2023-07-22T01:37:36;95928.88;;;16.61;83.21
29239;BME280;16267;48.194;11.546;2023-07-22T01:40:03;95936.69;;;16.59;83.56
29239;BME280;16267;48.194;11.546;2023-07-22T01:42:49;95930.19;;;16.56;83.63
29239;BME280;16267;48.194;11.546;2023-07-22T01:45:14;95939.94;;;16.54;83.96
29239;BME280;16267;48.194;11.546;2023-07-22T01:47:40;95941.59;;;16.51;84.07
29239;BME280;16267;48.194;11.546;2023-07-22T01:50:07;95944.75;;;16.49;84.74
29239;BME280;16267;48.194;11.546;2023-07-22T01:52:33;95950.59;;;16.48;85.19
29239;BME280;16267;48.194;11.546;2023-07-22T01:54:58;95950.28;;;16.46;85.59
29239;BME280;16267;48.194;11.546;2023-07-22T01:57:24;95957.66;;;16.45;86.78
29239;BME280;16267;48.194;11.546;2023-07-22T01:59:50;95956.13;;;16.44;86.81
29239;BME280;16267;48.194;11.546;2023-07-22T02:02:16;95948.03;;;16.44;85.85
29239;BME280;16267;48.194;11.546;2023-07-22T02:04:42;95952.97;;;16.46;85.27
29239;BME280;16267;48.194;11.546;2023-07-22T02:07:07;95951.81;;;16.47;85.87
29239;BME280;16267;48.194;11.546;2023-07-22T02:09:34;95947.13;;;16.47;85.30
29239;BME280;16267;48.194;11.546;2023-07-22T02:12:00;95948.22;;;16.50;85.79
29239;BME280;16267;48.194;11.546;2023-07-22T02:14:28;95952.44;;;16.51;86.52
29239;BME280;16267;48.194;11.546;2023-07-22T02:16:53;95943.53;;;16.50;87.08
29239;BME280;16267;48.194;11.546;2023-07-22T02:19:19;95955.13;;;16.51;88.15
29239;BME280;16267;48.194;11.546;2023-07-22T02:21:45;95957.84;;;16.51;89.03
29239;BME280;16267;48.194;11.546;2023-07-22T02:24:11;95951.25;;;16.52;89.31
29239;BME280;16267;48.194;11.546;2023-07-22T02:26:36;95955.13;;;16.51;89.36
29239;BME280;16267;48.194;11.546;2023-07-22T02:29:02;95952.13;;;16.49;89.91
29239;BME280;16267;48.194;11.546;2023-07-22T02:31:28;95952.56;;;16.47;89.47
29239;BME280;16267;48.194;11.546;2023-07-22T02:33:54;95955.25;;;16.47;90.34
29239;BME280;16267;48.194;11.546;2023-07-22T02:36:19;95957.66;;;16.45;89.51
29239;BME280;16267;48.194;11.546;2023-07-22T02:38:45;95954.19;;;16.45;89.67
29239;BME280;16267;48.194;11.546;2023-07-22T02:41:11;95950.72;;;16.44;89.77
29239;BME280;16267;48.194;11.546;2023-07-22T02:43:36;95949.97;;;16.44;90.26
29239;BME280;16267;48.194;11.546;2023-07-22T02:46:04;95946.50;;;16.43;89.30
29239;BME280;16267;48.194;11.546;2023-07-22T02:48:31;95947.56;;;16.46;89.08
29239;BME280;16267;48.194;11.546;2023-07-22T02:51:07;95942.59;;;16.44;88.53
29239;BME280;16267;48.194;11.546;2023-07-22T02:53:34;95950.28;;;16.46;89.03
29239;BME280;16267;48.194;11.546;2023-07-22T02:56:00;95952.97;;;16.46;88.79
29239;BME280;16267;48.194;11.546;2023-07-22T02:58:26;95957.22;;;16.47;89.61
29239;BME280;16267;48.194;11.546;2023-07-22T03:00:52;95961.09;;;16.46;89.55
29239;BME280;16267;48.194;11.546;2023-07-22T03:03:17;95964.59;;;16.46;89.73
29239;BME280;16267;48.194;11.546;2023-07-22T03:05:45;95969.22;;;16.46;89.53
29239;BME280;16267;48.194;11.546;2023-07-22T03:08:11;95973.91;;;16.45;89.79
29239;BME280;16267;48.194;11.546;2023-07-22T03:10:36;95962.31;;;16.45;90.42
29239;BME280;16267;48.194;11.546;2023-07-22T03:13:02;95966.53;;;16.46;90.49
29239;BME280;16267;48.194;11.546;2023-07-22T03:15:28;95961.09;;;16.46;90.05
29239;BME280;16267;48.194;11.546;2023-07-22T03:17:55;95963.81;;;16.46;90.68
29239;BME280;16267;48.194;11.546;2023-07-22T03:20:22;95966.09;;;16.47;89.79
29239;BME280;16267;48.194;11.546;2023-07-22T03:22:48;95973.03;;;16.48;89.52
29239;BME280;16267;48.194;11.546;2023-07-22T03:25:15;95973.81;;;16.49;89.67
29239;BME280;16267;48.194;11.546;2023-07-22T03:27:43;95968.69;;;16.51;91.16
29239;BME280;16267;48.194;11.546;2023-07-22T03:30:13;95965.22;;;16.50;91.70
29239;BME280;16267;48.194;11.546;2023-07-22T03:32:44;95965.22;;;16.50;91.25
29239;BME280;16267;48.194;11.546;2023-07-22T03:35:10;95962.09;;;16.52;90.14
29239;BME280;16267;48.194;11.546;2023-07-22T03:37:36;95957.09;;;16.50;89.87
29239;BME280;16267;48.194;11.546;2023-07-22T03:40:06;95960.88;;;16.53;90.46
29239;BME280;16267;48.194;11.546;2023-07-22T03:42:34;95964.47;;;16.50;91.31
29239;BME280;16267;48.194;11.546;2023-07-22T03:45:01;95966.84;;;16.48;91.86
29239;BME280;16267;48.194;11.546;2023-07-22T03:47:27;95972.72;;;16.46;92.23
29239;BME280;16267;48.194;11.546;2023-07-22T03:49:53;95973.91;;;16.45;92.50
29239;BME280;16267;48.194;11.546;2023-07-22T03:52:18;95981.28;;;16.45;91.12
29239;BME280;16267;48.194;11.546;2023-07-22T03:54:44;95981.28;;;16.45;90.82
29239;BME280;16267;48.194;11.546;2023-07-22T03:57:10;95982.47;;;16.44;90.89
29239;BME280;16267;48.194;11.546;2023-07-22T03:59:36;95985.94;;;16.44;90.07
29239;BME280;16267;48.194;11.546;2023-07-22T04:02:02;95989.41;;;16.45;89.68
29239;BME280;16267;48.194;11.546;2023-07-22T04:04:28;95989.41;;;16.45;90.05
29239;BME280;16267;48.194;11.546;2023-07-22T04:06:54;95985.81;;;16.48;89.96
29239;BME280;16267;48.194;11.546;2023-07-22T04:09:20;95987.78;;;16.47;89.23
29239;BME280;16267;48.194;11.546;2023-07-22T04:11:45;95986.56;;;16.48;89.30
29239;BME280;16267;48.194;11.546;2023-07-22T04:14:11;95988.84;;;16.50;89.58
29239;BME280;16267;48.194;11.546;2023-07-22T04:16:39;95993.06;;;16.51;90.42
29239;BME280;16267;48.194;11.546;2023-07-22T04:19:04;95996.84;;;16.54;90.63
29239;BME280;16267;48.194;11.546;2023-07-22T04:21:30;96000.31;;;16.54;90.54
29239;BME280;16267;48.194;11.546;2023-07-22T04:23:56;96006.38;;;16.58;90.44
29239;BME280;16267;48.194;11.546;2023-07-22T04:26:21;95992.84;;;16.58;91.69
29239;BME280;16267;48.194;11.546;2023-07-22T04:28:47;96005.50;;;16.61;92.63
29239;BME280;16267;48.194;11.546;2023-07-22T04:31:13;96005.50;;;16.61;92.26
29239;BME280;16267;48.194;11.546;2023-07-22T04:33:38;96008.53;;;16.63;91.81
29239;BME280;16267;48.194;11.546;2023-07-22T04:36:04;96006.91;;;16.66;91.94
29239;BME280;16267;48.194;11.546;2023-07-22T04:38:30;96000.28;;;16.67;93.04
29239;BME280;16267;48.194;11.546;2023-07-22T04:40:56;95992.00;;;16.70;92.02
29239;BME280;16267;48.194;11.546;2023-07-22T04:43:21;95990.38;;;16.73;93.03
29239;BME280;16267;48.194;11.546;2023-07-22T04:45:47;95992.22;;;16.76;91.76
29239;BME280;16267;48.194;11.546;2023-07-22T04:48:15;95983.53;;;16.81;91.12
29239;BME280;16267;48.194;11.546;2023-07-22T04:50:42;95984.47;;;16.87;91.21
29239;BME280;16267;48.194;11.546;2023-07-22T04:53:11;95987.84;;;16.91;91.49
29239;BME280;16267;48.194;11.546;2023-07-22T04:55:41;95993.88;;;16.95;92.73
29239;BME280;16267;48.194;11.546;2023-07-22T04:58:07;95991.50;;;16.98;93.45
29239;BME280;16267;48.194;11.546;2023-07-22T05:00:33;95991.06;;;16.99;93.39
29239;BME280;16267;48.194;11.546;2023-07-22T05:03:00;95994.84;;;17.02;92.34
29239;BME280;16267;48.194;11.546;2023-07-22T05:05:26;95984.31;;;17.04;92.50
29239;BME280;16267;48.194;11.546;2023-07-22T05:07:51;95991.25;;;17.05;93.49
29239;BME280;16267;48.194;11.546;2023-07-22T05:10:18;95997.44;;;17.05;93.68
29239;BME280;16267;48.194;11.546;2023-07-22T05:12:45;95999.69;;;17.07;93.25
29239;BME280;16267;48.194;11.546;2023-07-22T05:15:12;96002.72;;;17.09;92.13
29239;BME280;16267;48.194;11.546;2023-07-22T05:17:39;96007.72;;;17.10;91.23
29239;BME280;16267;48.194;11.546;2023-07-22T05:20:05;96009.53;;;17.13;90.75
29239;BME280;16267;48.194;11.546;2023-07-22T05:22:32;96019.50;;;17.16;89.94
29239;BME280;16267;48.194;11.546;2023-07-22T05:24:59;96024.78;;;17.20;89.14
29239;BME280;16267;48.194;11.546;2023-07-22T05:27:25;96016.22;;;17.22;90.17
29239;BME280;16267;48.194;11.546;2023-07-22T05:29:50;96012.63;;;17.25;91.61
29239;BME280;16267;48.194;11.546;2023-07-22T05:32:16;96021.06;;;17.27;92.35
29239;BME280;16267;48.194;11.546;2023-07-22T05:34:42;96015.94;;;17.29;92.03
29239;BME280;16267;48.194;11.546;2023-07-22T05:37:07;96018.53;;;17.32;91.83
29239;BME280;16267;48.194;11.546;2023-07-22T05:39:33;96011.47;;;17.35;92.01
29239;BME280;16267;48.194;11.546;2023-07-22T05:41:59;96007.88;;;17.38;91.34
29239;BME280;16267;48.194;11.546;2023-07-22T05:44:24;96011.19;;;17.42;89.98
29239;BME280;16267;48.194;11.546;2023-07-22T05:46:50;96013.16;;;17.42;90.47
29239;BME280;16267;48.194;11.546;2023-07-22T05:49:16;96002.63;;;17.44;90.49
29239;BME280;16267;48.194;11.546;2023-07-22T05:51:42;96001.41;;;17.45;89.23
29239;BME280;16267;48.194;11.546;2023-07-22T05:54:07;95997.06;;;17.47;89.04
29239;BME280;16267;48.194;11.546;2023-07-22T05:56:33;95996.16;;;17.50;90.14
29239;BME280;16267;48.194;11.546;2023-07-22T05:58:59;96004.63;;;17.52;91.24
29239;BME280;16267;48.194;11.546;2023-07-22T06:01:24;95996.81;;;17.54;91.73
29239;BME280;16267;48.194;11.546;2023-07-22T06:03:50;96014.91;;;17.57;92.86
29239;BME280;16267;48.194;11.546;2023-07-22T06:06:16;96012.38;;;17.63;94.34
29239;BME280;16267;48.194;11.546;2023-07-22T06:08:42;96016.16;;;17.66;93.84
29239;BME280;16267;48.194;11.546;2023-07-22T06:11:08;96027.28;;;17.68;95.86
29239;BME280;16267;48.194;11.546;2023-07-22T06:13:34;96017.81;;;17.72;93.53
29239;BME280;16267;48.194;11.546;2023-07-22T06:15:59;96014.97;;;17.76;91.28
29239;BME280;16267;48.194;11.546;2023-07-22T06:18:25;96025.75;;;17.79;88.51
29239;BME280;16267;48.194;11.546;2023-07-22T06:20:51;96026.34;;;17.83;87.71
29239;BME280;16267;48.194;11.546;2023-07-22T06:23:17;96027.28;;;17.90;86.06
29239;BME280;16267;48.194;11.546;2023-07-22T06:25:43;96027.44;;;17.95;85.51
29239;BME280;16267;48.194;11.546;2023-07-22T06:28:09;96030.94;;;18.05;85.52
29239;BME280;16267;48.194;11.546;2023-07-22T06:30:34;96032.34;;;18.10;84.69
29239;BME280;16267;48.194;11.546;2023-07-22T06:33:00;96034.59;;;18.20;85.45
29239;BME280;16267;48.194;11.546;2023-07-22T06:35:26;96036.31;;;18.27;83.89
29239;BME280;16267;48.194;11.546;2023-07-22T06:37:52;96038.72;;;18.34;84.18
29239;BME280;16267;48.194;11.546;2023-07-22T06:40:18;96036.94;;;18.40;84.53
29239;BME280;16267;48.194;11.546;2023-07-22T06:42:44;96047.97;;;18.46;81.68
29239;BME280;16267;48.194;11.546;2023-07-22T06:45:10;96041.94;;;18.60;82.36
29239;BME280;16267;48.194;11.546;2023-07-22T06:47:36;96039.81;;;18.64;81.92
29239;BME280;16267;48.194;11.546;2023-07-22T06:50:03;96047.69;;;18.62;75.20
29239;BME280;16267;48.194;11.546;2023-07-22T06:52:32;96050.56;;;18.68;76.87
29239;BME280;16267;48.194;11.546;2023-07-22T06:54:59;96046.47;;;18.72;76.45
29239;BME280;16267;48.194;11.546;2023-07-22T06:57:25;96045.47;;;18.79;73.05
29239;BME280;16267;48.194;11.546;2023-07-22T06:59:53;96044.72;;;18.88;73.35
29239;BME280;16267;48.194;11.546;2023-07-22T07:02:19;96041.25;;;18.87;72.78
29239;BME280;16267;48.194;11.546;2023-07-22T07:04:45;96046.06;;;18.92;74.30
29239;BME280;16267;48.194;11.546;2023-07-22T07:07:12;96046.38;;;18.94;74.94
29239;BME280;16267;48.194;11.546;2023-07-22T07:09:38;96043.63;;;18.94;74.13
29239;BME280;16267;48.194;11.546;2023-07-22T07:12:04;96048.47;;;19.00;73.39
29239;BME280;16267;48.194;11.546;2023-07-22T07:14:32;96050.91;;;19.07;72.57
29239;BME280;16267;48.194;11.546;2023-07-22T07:16:58;96049.09;;;19.13;71.22
29239;BME280;16267;48.194;11.546;2023-07-22T07:19:24;96052.38;;;19.17;69.69
29239;BME280;16267;48.194;11.546;2023-07-22T07:21:50;96043.78;;;19.19;70.07
29239;BME280;16267;48.194;11.546;2023-07-22T07:24:15;96054.66;;;19.19;69.22
29239;BME280;16267;48.194;11.546;2023-07-22T07:26:41;96057.69;;;19.21;69.47
29239;BME280;16267;48.194;11.546;2023-07-22T07:29:07;96061.78;;;19.07;64.33
29239;BME280;16267;48.194;11.546;2023-07-22T07:31:33;96057.69;;;19.02;66.25
29239;BME280;16267;48.194;11.546;2023-07-22T07:33:59;96057.84;;;19.08;67.89
29239;BME280;16267;48.194;11.546;2023-07-22T07:36:24;96055.72;;;19.12;69.34
29239;BME280;16267;48.194;11.546;2023-07-22T07:38:50;96053.13;;;19.17;68.99
29239;BME280;16267;48.194;11.546;2023-07-22T07:41:16;96065.25;;;19.16;67.43
29239;BME280;16267;48.194;11.546;2023-07-22T07:43:42;96063.13;;;19.11;66.72
29239;BME280;16267;48.194;11.546;2023-07-22T07:46:28;96056.34;;;19.16;67.69
29239;BME280;16267;48.194;11.546;2023-07-22T07:48:57;96056.94;;;19.11;66.57
29239;BME280;16267;48.194;11.546;2023-07-22T07:51:25;96063.44;;;19.04;64.89
29239;BME280;16267;48.194;11.546;2023-07-22T07:53:53;96062.06;;;19.09;66.76
29239;BME280;16267;48.194;11.546;2023-07-22T07:56:19;96058.44;;;19.21;68.17
29239;BME280;16267;48.194;11.546;2023-07-22T07:58:47;96071.28;;;19.30;68.75
29239;BME280;16267;48.194;11.546;2023-07-22T08:01:13;96060.06;;;19.37;68.13
29239;BME280;16267;48.194;11.546;2023-07-22T08:03:41;96056.13;;;19.47;68.28
29239;BME280;16267;48.194;11.546;2023-07-22T08:06:09;96067.75;;;19.57;69.05
29239;BME280;16267;48.194;11.546;2023-07-22T08:08:36;96063.25;;;19.54;60.00
29239;BME280;16267;48.194;11.546;2023-07-22T08:11:10;96067.31;;;19.68;63.47
29239;BME280;16267;48.194;11.546;2023-07-22T08:13:37;96059.56;;;19.75;65.40
29239;BME280;16267;48.194;11.546;2023-07-22T08:16:08;96057.16;;;19.77;63.17
29239;BME280;16267;48.194;11.546;2023-07-22T08:18:35;96056.22;;;19.80;63.95
29239;BME280;16267;48.194;11.546;2023-07-22T08:21:04;96061.97;;;19.82;62.25
29239;BME280;16267;48.194;11.546;2023-07-22T08:23:30;96057.41;;;19.89;63.18
29239;BME280;16267;48.194;11.546;2023-07-22T08:25:56;96061.31;;;19.97;63.28
29239;BME280;16267;48.194;11.546;2023-07-22T08:28:22;96067.63;;;20.03;63.17
29239;BME280;16267;48.194;11.546;2023-07-22T08:30:48;96064.88;;;20.12;61.65
29239;BME280;16267;48.194;11.546;2023-07-22T08:33:15;96064.53;;;20.19;60.66
29239;BME280;16267;48.194;11.546;2023-07-22T08:35:44;96063.91;;;20.24;58.86
29239;BME280;16267;48.194;11.546;2023-07-22T08:38:10;96060.56;;;20.30;58.79
29239;BME280;16267;48.194;11.546;2023-07-22T08:40:39;96059.47;;;20.36;58.67
29239;BME280;16267;48.194;11.546;2023-07-22T08:43:07;96059.41;;;20.45;57.37
29239;BME280;16267;48.194;11.546;2023-07-22T08:45:37;96060.13;;;20.55;58.45
29239;BME280;16267;48.194;11.546;2023-07-22T08:48:08;96054.34;;;20.62;57.18
29239;BME280;16267;48.194;11.546;2023-07-22T08:53:32;96051.94;;;20.79;55.18
29239;BME280;16267;48.194;11.546;2023-07-22T08:55:59;96054.97;;;20.81;51.14
29239;BME280;16267;48.194;11.546;2023-07-22T08:58:25;96044.28;;;20.92;52.50
29239;BME280;16267;48.194;11.546;2023-07-22T09:00:51;96052.09;;;21.00;52.35
29239;BME280;16267;48.194;11.546;2023-07-22T09:03:18;96053.97;;;21.08;52.48
29239;BME280;16267;48.194;11.546;2023-07-22T09:05:45;96055.66;;;21.06;49.81
29239;BME280;16267;48.194;11.546;2023-07-22T09:08:11;96065.66;;;21.09;47.42
29239;BME280;16267;48.194;11.546;2023-07-22T09:10:38;96058.16;;;21.19;49.58
29239;BME280;16267;48.194;11.546;2023-07-22T09:13:04;96058.81;;;21.28;49.19
29239;BME280;16267;48.194;11.546;2023-07-22T09:15:35;96055.16;;;21.31;47.68
29239;BME280;16267;48.194;11.546;2023-07-22T09:18:04;96053.88;;;21.42;48.74
29239;BME280;16267;48.194;11.546;2023-07-22T09:20:33;96046.53;;;21.48;47.79
29239;BME280;16267;48.194;11.546;2023-07-22T09:23:00;96042.69;;;21.54;46.74
29239;BME280;16267;48.194;11.546;2023-07-22T09:25:28;96048.13;;;21.54;47.07
29239;BME280;16267;48.194;11.546;2023-07-22T09:27:57;96041.81;;;21.63;47.47
29239;BME280;16267;48.194;11.546;2023-07-22T09:30:29;96036.81;;;21.76;47.49
29239;BME280;16267;48.194;11.546;2023-07-22T09:33:01;96038.97;;;21.87;47.38
29239;BME280;16267;48.194;11.546;2023-07-22T09:35:47;96032.94;;;21.83;45.80
29239;BME280;16267;48.194;11.546;2023-07-22T09:38:14;96037.94;;;21.85;44.84
29239;BME280;16267;48.194;11.546;2023-07-22T09:40:42;96030.38;;;21.94;46.67
29239;BME280;16267;48.194;11.546;2023-07-22T09:43:12;96034.88;;;21.97;45.79
29239;BME280;16267;48.194;11.546;2023-07-22T09:48:04;96028.91;;;22.14;46.39
29239;BME280;16267;48.194;11.546;2023-07-22T09:50:31;96027.59;;;22.24;45.75
29239;BME280;16267;48.194;11.546;2023-07-22T09:52:59;96022.00;;;22.33;45.75
29239;BME280;16267;48.194;11.546;2023-07-22T09:55:30;96029.47;;;22.33;44.72
29239;BME280;16267;48.194;11.546;2023-07-22T09:58:03;96031.53;;;22.38;43.27
29239;BME280;16267;48.194;11.546;2023-07-22T10:00:35;96034.53;;;22.40;42.93
29239;BME280;16267;48.194;11.546;2023-07-22T10:03:03;96027.38;;;22.42;42.31
29239;BME280;16267;48.194;11.546;2023-07-22T10:05:35;96021.75;;;22.52;43.24
29239;BME280;16267;48.194;11.546;2023-07-22T10:08:02;96024.09;;;22.59;44.06
29239;BME280;16267;48.194;11.546;2023-07-22T10:10:37;96016.41;;;22.63;42.44
29239;BME280;16267;48.194;11.546;2023-07-22T10:13:04;96019.97;;;22.69;42.74
29239;BME280;16267;48.194;11.546;2023-07-22T10:15:32;96014.09;;;22.76;43.35
29239;BME280;16267;48.194;11.546;2023-07-22T10:18:01;96011.97;;;22.65;40.95
29239;BME280;16267;48.194;11.546;2023-07-22T10:20:28;96012.56;;;22.75;42.42
29239;BME280;16267;48.194;11.546;2023-07-22T10:22:55;96020.66;;;22.84;43.18
29239;BME280;16267;48.194;11.546;2023-07-22T10:25:22;96009.22;;;22.86;42.40
29239;BME280;16267;48.194;11.546;2023-07-22T10:27:51;96008.88;;;22.99;43.12
29239;BME280;16267;48.194;11.546;2023-07-22T10:30:18;96009.84;;;22.96;41.47
29239;BME280;16267;48.194;11.546;2023-07-22T10:32:49;96009.28;;;22.91;40.53
29239;BME280;16267;48.194;11.546;2023-07-22T10:38:16;96008.59;;;23.17;42.04
29239;BME280;16267;48.194;11.546;2023-07-22T10:40:54;96009.16;;;23.27;43.20
29239;BME280;16267;48.194;11.546;2023-07-22T10:43:27;96008.03;;;23.39;42.64
29239;BME280;16267;48.194;11.546;2023-07-22T10:45:55;96010.34;;;23.46;41.83
29239;BME280;16267;48.194;11.546;2023-07-22T10:48:26;95999.41;;;23.52;41.21
29239;BME280;16267;48.194;11.546;2023-07-22T10:51:02;96005.16;;;23.54;41.21
29239;BME280;16267;48.194;11.546;2023-07-22T10:53:30;96008.97;;;23.62;40.55
29239;BME280;16267;48.194;11.546;2023-07-22T11:07:04;95979.28;;;23.87;40.14
29239;BME280;16267;48.194;11.546;2023-07-22T11:16:59;95965.25;;;24.22;40.47
29239;BME280;16267;48.194;11.546;2023-07-22T11:19:26;95968.31;;;24.35;40.55
29239;BME280;16267;48.194;11.546;2023-07-22T11:21:53;95970.31;;;24.35;38.98
29239;BME280;16267;48.194;11.546;2023-07-22T11:24:24;95972.31;;;24.34;39.62
29239;BME280;16267;48.194;11.546;2023-07-22T11:26:51;95967.81;;;24.31;38.00
29239;BME280;16267;48.194;11.546;2023-07-22T11:29:17;95950.66;;;24.42;39.04
29239;BME280;16267;48.194;11.546;2023-07-22T11:31:47;95947.25;;;24.53;38.28
29239;BME280;16267;48.194;11.546;2023-07-22T11:34:19;95943.25;;;24.59;38.91
29239;BME280;16267;48.194;11.546;2023-07-22T11:36:46;95965.22;;;24.65;39.45
29239;BME280;16267;48.194;11.546;2023-07-22T11:39:20;95954.22;;;24.54;36.91
29239;BME280;16267;48.194;11.546;2023-07-22T11:41:48;95949.50;;;24.60;38.35
29239;BME280;16267;48.194;11.546;2023-07-22T11:44:20;95948.72;;;24.54;38.00
29239;BME280;16267;48.194;11.546;2023-07-22T11:47:06;95939.50;;;24.51;38.19
29239;BME280;16267;48.194;11.546;2023-07-22T11:49:39;95941.72;;;24.47;38.02
29239;BME280;16267;48.194;11.546;2023-07-22T11:54:41;95936.88;;;24.19;37.10
29239;BME280;16267;48.194;11.546;2023-07-22T11:57:23;95932.16;;;24.25;36.54
29239;BME280;16267;48.194;11.546;2023-07-22T11:59:55;95923.44;;;24.38;37.17
29239;BME280;16267;48.194;11.546;2023-07-22T12:02:26;95931.25;;;24.51;37.71
29239;BME280;16267;48.194;11.546;2023-07-22T12:05:01;95925.78;;;24.57;35.16
29239;BME280;16267;48.194;11.546;2023-07-22T12:07:29;95907.88;;;24.73;36.87
29239;BME280;16267;48.194;11.546;2023-07-22T12:09:58;95915.88;;;24.87;37.80
29239;BME280;16267;48.194;11.546;2023-07-22T12:12:40;95906.91;;;24.87;35.83
29239;BME280;16267;48.194;11.546;2023-07-22T12:17:47;95892.69;;;25.05;35.08
29239;BME280;16267;48.194;11.546;2023-07-22T12:20:14;95903.19;;;25.18;36.53
29239;BME280;16267;48.194;11.546;2023-07-22T12:22:41;95903.19;;;25.18;35.85
29239;BME280;16267;48.194;11.546;2023-07-22T12:25:08;95906.94;;;25.21;35.74
29239;BME280;16267;48.194;11.546;2023-07-22T12:27:34;95896.97;;;25.23;36.06
29239;BME280;16267;48.194;11.546;2023-07-22T12:29:59;95895.97;;;25.26;36.39
29239;BME280;16267;48.194;11.546;2023-07-22T12:32:25;95904.94;;;25.27;36.19
29239;BME280;16267;48.194;11.546;2023-07-22T12:34:51;95893.97;;;25.32;36.08
29239;BME280;16267;48.194;11.546;2023-07-22T12:37:16;95894.97;;;25.35;35.66
29239;BME280;16267;48.194;11.546;2023-07-22T12:39:42;95897.97;;;25.26;34.68
29239;BME280;16267;48.194;11.546;2023-07-22T12:42:08;95889.97;;;25.22;35.33
29239;BME280;16267;48.194;11.546;2023-07-22T12:44:34;95892.97;;;25.24;36.06
29239;BME280;16267;48.194;11.546;2023-07-22T12:47:00;95889.97;;;25.28;35.67
29239;BME280;16267;48.194;11.546;2023-07-22T12:49:25;95893.72;;;25.30;35.55
29239;BME280;16267;48.194;11.546;2023-07-22T12:51:51;95885.25;;;25.23;35.08
29239;BME280;16267;48.194;11.546;2023-07-22T12:54:17;95888.72;;;25.23;35.88
29239;BME280;16267;48.194;11.546;2023-07-22T12:56:43;95887.72;;;25.15;34.66
29239;BME280;16267;48.194;11.546;2023-07-22T12:59:09;95888.97;;;25.08;34.40
29239;BME280;16267;48.194;11.546;2023-07-22T13:01:35;95877.97;;;25.08;34.47
29239;BME280;16267;48.194;11.546;2023-07-22T13:04:04;95885.72;;;25.15;35.92
29239;BME280;16267;48.194;11.546;2023-07-22T13:06:30;95874.50;;;25.19;35.04
29239;BME280;16267;48.194;11.546;2023-07-22T13:08:56;95882.50;;;25.23;34.28
29239;BME280;16267;48.194;11.546;2023-07-22T13:11:22;95881.75;;;25.28;34.02
29239;BME280;16267;48.194;11.546;2023-07-22T13:13:47;95862.50;;;25.33;34.44
29239;BME280;16267;48.194;11.546;2023-07-22T13:16:13;95858.03;;;25.30;33.41
29239;BME280;16267;48.194;11.546;2023-07-22T13:18:39;95859.25;;;25.41;34.49
29239;BME280;16267;48.194;11.546;2023-07-22T13:21:05;95857.50;;;25.43;35.67
29239;BME280;16267;48.194;11.546;2023-07-22T13:23:30;95854.00;;;25.48;34.31